Time;durP1;ratioP1;P1;durP2;ratioP2;P2;SDS_P1;SDS_P2;PMS_P1;PMS_P2;Temp;Humidity;BMP_temperature;BMP_pressure;BME280_temperature;BME280_humidity;BME280_pressure;Samples;Min_cycle;Max_cycle;Signal;HPM_P1;HPM_P2
2022/03/22 00:00:56;;;;;;;156.65;65.05;;;;;;;2.54;79.36;102073.75;5075328;28;20052;-78
2022/03/22 00:03:25;;;;;;;151.98;66.18;;;;;;;2.72;78.64;102083.75;5075248;28;20587;-78
2022/03/22 00:05:52;;;;;;;150.55;63.80;;;;;;;2.75;77.85;102080.25;5075293;28;20114;-79
2022/03/22 00:08:22;;;;;;;156.50;65.53;;;;;;;2.64;77.83;102079.19;5074979;28;20070;-79
2022/03/22 00:10:49;;;;;;;204.02;83.43;;;;;;;2.47;78.53;102077.22;5075369;28;20078;-78
2022/03/22 00:13:23;;;;;;;215.75;89.28;;;;;;;2.53;78.08;102074.63;5075844;28;20135;-79
2022/03/22 00:15:52;;;;;;;207.95;85.82;;;;;;;2.67;77.61;102076.59;5076409;28;20488;-78
2022/03/22 00:18:19;;;;;;;209.93;89.90;;;;;;;2.39;78.74;102079.78;5095167;28;20056;-78
2022/03/22 00:20:47;;;;;;;260.60;104.93;;;;;;;2.48;78.26;102081.69;5078637;28;20052;-78
2022/03/22 00:23:15;;;;;;;303.23;117.40;;;;;;;2.39;78.38;102078.91;5074611;28;20118;-78
2022/03/22 00:25:44;;;;;;;329.45;122.72;;;;;;;2.33;78.30;102078.81;5075061;28;20049;-78
2022/03/22 00:28:12;;;;;;;399.67;135.25;;;;;;;2.41;78.60;102079.81;5074945;28;20471;-78
2022/03/22 00:30:40;;;;;;;425.27;144.80;;;;;;;2.30;78.95;102083.25;5074862;28;20045;-78
2022/03/22 00:33:09;;;;;;;398.52;136.82;;;;;;;2.48;77.67;102078.16;5074799;28;20056;-78
2022/03/22 00:35:38;;;;;;;379.90;125.85;;;;;;;2.49;77.62;102074.59;5074501;28;20072;-78
2022/03/22 00:38:08;;;;;;;372.20;125.65;;;;;;;2.37;78.13;102083.31;5074718;28;20054;-78
2022/03/22 00:40:36;;;;;;;413.00;141.00;;;;;;;2.26;78.31;102084.09;5074800;28;20068;-79
2022/03/22 00:43:05;;;;;;;380.73;130.55;;;;;;;2.37;78.04;102070.88;5074591;28;20592;-77
2022/03/22 00:45:34;;;;;;;301.27;111.25;;;;;;;2.30;78.01;102077.91;5074417;28;20040;-78
2022/03/22 00:48:02;;;;;;;295.48;109.95;;;;;;;2.34;78.44;102076.16;5074314;28;20492;-77
2022/03/22 00:50:33;;;;;;;243.48;95.70;;;;;;;2.26;78.20;102078.75;5074190;28;20045;-79
2022/03/22 00:53:02;;;;;;;205.88;88.82;;;;;;;2.10;79.13;102082.97;5074283;28;20046;-78
2022/03/22 00:55:29;;;;;;;202.15;81.93;;;;;;;2.19;79.50;102082.19;5074259;28;20075;-79
2022/03/22 00:57:58;;;;;;;181.80;78.30;;;;;;;2.21;79.22;102074.22;5074189;28;20078;-78
2022/03/22 01:00:28;;;;;;;169.27;72.43;;;;;;;2.24;78.83;102069.81;5074089;28;20064;-79
2022/03/22 01:02:58;;;;;;;183.27;78.60;;;;;;;2.18;79.09;102075.06;5074212;28;20127;-79
2022/03/22 01:05:27;;;;;;;212.68;86.60;;;;;;;2.17;78.92;102074.19;5074701;28;20048;-78
2022/03/22 01:07:56;;;;;;;226.50;89.10;;;;;;;2.11;79.35;102073.19;5074006;28;20071;-79
2022/03/22 01:10:26;;;;;;;189.90;82.10;;;;;;;2.13;78.76;102072.34;5074093;28;20436;-78
2022/03/22 01:12:54;;;;;;;203.25;82.70;;;;;;;1.90;79.46;102074.66;5073952;28;20046;-79
2022/03/22 01:15:23;;;;;;;219.77;88.53;;;;;;;1.83;79.05;102072.75;5073959;28;20041;-79
2022/03/22 01:17:55;;;;;;;201.82;80.90;;;;;;;1.93;78.76;102071.13;5090622;28;20131;-78
2022/03/22 01:20:25;;;;;;;167.82;70.00;;;;;;;1.89;79.59;102072.88;5073405;28;20052;-79
2022/03/22 01:22:54;;;;;;;115.38;49.50;;;;;;;1.96;79.53;102069.44;5073611;28;20075;-79
2022/03/22 01:25:25;;;;;;;158.02;64.53;;;;;;;2.16;78.92;102061.72;5073737;28;20094;-79
2022/03/22 01:27:53;;;;;;;139.63;58.38;;;;;;;2.25;78.22;102068.97;5074635;28;20490;-79
2022/03/22 01:30:22;;;;;;;139.38;58.90;;;;;;;2.16;78.31;102064.38;5073494;28;20106;-79
2022/03/22 01:32:52;;;;;;;143.15;60.50;;;;;;;2.07;79.28;102063.34;5073343;28;20044;-78
2022/03/22 01:35:20;;;;;;;147.75;59.40;;;;;;;2.14;79.04;102062.56;5073983;28;20044;-79
2022/03/22 01:37:48;;;;;;;136.57;58.65;;;;;;;2.15;78.76;102059.00;5073404;28;20048;-79
2022/03/22 01:40:18;;;;;;;144.88;58.97;;;;;;;2.09;78.79;102066.94;5073494;28;20049;-79
2022/03/22 01:42:46;;;;;;;163.15;69.30;;;;;;;2.15;78.25;102061.69;5072633;28;20124;-79
2022/03/22 01:45:15;;;;;;;158.10;68.93;;;;;;;2.07;78.15;102058.94;5073615;28;20115;-79
2022/03/22 01:47:44;;;;;;;172.98;74.80;;;;;;;2.14;78.39;102062.56;5073296;28;20044;-79
2022/03/22 01:50:15;;;;;;;172.52;70.57;;;;;;;2.13;78.61;102069.69;5073056;28;20040;-78
2022/03/22 01:52:43;;;;;;;151.95;67.20;;;;;;;2.12;78.82;102072.31;5074067;28;20045;-79
2022/03/22 01:55:13;;;;;;;170.32;71.70;;;;;;;2.10;78.76;102068.72;5073156;28;20044;-78
2022/03/22 01:57:42;;;;;;;182.98;75.43;;;;;;;2.08;79.10;102062.47;5073561;28;20539;-79
2022/03/22 02:00:11;;;;;;;184.02;75.75;;;;;;;2.08;78.67;102067.81;5073223;28;20108;-79
2022/03/22 02:08:10;;;;;;;;;;;;;;;1.87;79.57;102066.63;5074353;28;20123;-78
2022/03/22 02:10:38;;;;;;;195.27;83.07;;;;;;;1.76;79.75;102076.19;5073033;28;19926;-78
2022/03/22 02:13:06;;;;;;;206.35;82.05;;;;;;;1.65;79.81;102076.94;5073038;28;20052;-78
2022/03/22 02:15:34;;;;;;;173.70;72.50;;;;;;;1.69;80.06;102078.78;5073153;28;20119;-79
2022/03/22 02:18:02;;;;;;;186.25;76.13;;;;;;;1.75;80.04;102075.31;5072448;28;20500;-78
2022/03/22 02:20:31;;;;;;;160.05;70.35;;;;;;;1.64;80.66;102068.94;5073075;28;20048;-79
2022/03/22 02:23:05;;;;;;;134.38;58.85;;;;;;;1.76;80.48;102079.78;5073016;28;20418;-78
2022/03/22 02:25:35;;;;;;;119.45;52.20;;;;;;;1.72;80.45;102081.47;5073306;28;20043;-79
2022/03/22 02:28:04;;;;;;;127.70;54.20;;;;;;;1.70;80.42;102083.22;5072946;28;20509;-79
2022/03/22 02:30:32;;;;;;;121.78;51.75;;;;;;;1.71;80.25;102079.69;5073031;28;20044;-79
2022/03/22 02:33:01;;;;;;;108.45;46.47;;;;;;;1.68;80.15;102079.66;5072590;28;20124;-79
2022/03/22 02:35:30;;;;;;;106.28;50.60;;;;;;;1.66;80.33;102081.38;5072719;28;20513;-78
2022/03/22 02:37:58;;;;;;;114.60;52.50;;;;;;;1.64;80.73;102082.25;5073990;28;20123;-78
2022/03/22 02:40:27;;;;;;;111.00;51.00;;;;;;;1.54;80.35;102081.19;5077056;28;20377;-78
2022/03/22 02:43:00;;;;;;;105.90;48.20;;;;;;;1.57;80.39;102082.13;5076826;28;20059;-78
2022/03/22 02:45:28;;;;;;;107.60;48.15;;;;;;;1.68;80.25;102079.66;5077545;28;20169;-77
2022/03/22 02:47:56;;;;;;;90.85;46.08;;;;;;;1.69;79.91;102075.22;5076699;28;20048;-78
2022/03/22 02:50:24;;;;;;;89.63;42.80;;;;;;;1.69;79.78;102078.78;5076910;28;20045;-78
2022/03/22 02:52:52;;;;;;;110.70;48.50;;;;;;;1.81;79.26;102085.16;5076768;28;20051;-78
2022/03/22 02:55:21;;;;;;;104.10;48.67;;;;;;;1.78;79.47;102080.69;5076524;28;20052;-78
2022/03/22 02:57:49;;;;;;;115.07;50.70;;;;;;;1.75;79.27;102091.31;5076845;28;20049;-79
2022/03/22 03:00:18;;;;;;;120.22;52.65;;;;;;;1.80;78.87;102083.38;5076405;28;20058;-79
2022/03/22 03:02:49;;;;;;;124.95;53.58;;;;;;;1.77;78.80;102088.66;5076030;28;20045;-77
2022/03/22 03:05:17;;;;;;;114.90;51.65;;;;;;;1.84;78.71;102093.25;5077835;28;20052;-78
2022/03/22 03:07:45;;;;;;;118.45;51.53;;;;;;;1.76;78.63;102092.19;5076489;28;20178;-77
2022/03/22 03:10:13;;;;;;;113.47;51.22;;;;;;;1.60;79.04;102089.28;5076494;28;20115;-78
2022/03/22 03:12:41;;;;;;;110.30;49.22;;;;;;;1.71;78.95;102092.13;5076444;28;20071;-78
2022/03/22 03:15:09;;;;;;;110.72;48.72;;;;;;;1.71;78.86;102095.69;5075951;28;20040;-77
2022/03/22 03:17:39;;;;;;;114.13;50.10;;;;;;;1.66;78.87;102094.72;5092267;28;20063;-78
2022/03/22 03:20:08;;;;;;;106.90;47.33;;;;;;;1.66;78.93;102091.16;5085478;28;20048;-78
2022/03/22 03:22:36;;;;;;;100.63;46.60;;;;;;;1.73;78.71;102093.94;5076141;28;20114;-78
2022/03/22 03:25:06;;;;;;;103.05;47.45;;;;;;;1.69;78.81;102099.22;5076258;28;20040;-78
2022/03/22 03:27:33;;;;;;;109.00;47.60;;;;;;;1.68;78.68;102100.09;5076078;28;20068;-78
2022/03/22 03:30:01;;;;;;;103.78;47.03;;;;;;;1.65;78.39;102095.59;5075583;28;20040;-77
2022/03/22 03:32:29;;;;;;;93.47;44.53;;;;;;;1.61;78.59;102090.16;5075901;28;20487;-78
2022/03/22 03:34:58;;;;;;;95.82;45.20;;;;;;;1.53;nan;102098.06;5075722;28;20064;-76
2022/03/22 03:37:28;;;;;;;93.63;44.95;;;;;;;1.41;78.64;102098.72;5075778;28;20058;-77
2022/03/22 03:39:56;;;;;;;101.90;44.35;;;;;;;1.53;79.31;102092.72;5075758;28;20095;-77
2022/03/22 03:42:23;;;;;;;92.22;44.13;;;;;;;1.57;78.78;102097.22;5075818;28;20127;-78
2022/03/22 03:47:36;;;;;;;99.55;46.08;;;;;;;1.20;79.68;102104.56;5075969;28;20050;-78
2022/03/22 03:50:07;;;;;;;110.97;49.20;;;;;;;1.11;80.00;102105.28;5075244;28;20139;-77
2022/03/22 03:52:36;;;;;;;100.53;46.25;;;;;;;1.22;79.47;102111.69;5076797;28;20495;-78
2022/03/22 03:55:06;;;;;;;90.63;43.40;;;;;;;1.30;79.07;102111.84;5075466;28;20048;-77
2022/03/22 03:57:35;;;;;;;90.28;42.70;;;;;;;1.23;79.53;102117.94;5075697;28;20428;-77
2022/03/22 04:00:04;;;;;;;83.00;40.15;;;;;;;1.30;78.89;102112.75;5075163;28;20048;-78
2022/03/22 04:02:32;;;;;;;86.80;39.47;;;;;;;1.33;79.25;102119.00;5075353;28;20134;-77
2022/03/22 04:05:00;;;;;;;79.05;40.83;;;;;;;1.35;78.67;102123.47;5075600;28;20064;-78
2022/03/22 04:07:29;;;;;;;86.80;39.80;;;;;;;1.43;78.75;102116.53;5075220;28;20048;-77
2022/03/22 04:09:57;;;;;;;79.43;37.65;;;;;;;1.46;78.91;102120.13;5075111;28;20388;-78
2022/03/22 04:12:25;;;;;;;74.25;36.30;;;;;;;1.38;78.71;102117.31;5075340;28;20044;-78
2022/03/22 04:14:53;;;;;;;74.85;36.42;;;;;;;1.40;78.72;102119.13;5074674;28;20064;-77
2022/03/22 04:17:22;;;;;;;78.93;36.70;;;;;;;1.40;78.79;102112.91;5088944;28;20051;-77
2022/03/22 04:19:49;;;;;;;79.18;38.05;;;;;;;1.44;78.77;102113.00;5086690;28;20495;-77
2022/03/22 04:22:18;;;;;;;75.97;37.78;;;;;;;1.38;78.82;102117.31;5074954;28;20131;-77
2022/03/22 04:24:47;;;;;;;80.15;36.17;;;;;;;1.41;78.94;102126.25;5074799;28;20075;-78
2022/03/22 04:32:44;;;;;;;82.50;39.67;;;;;;;0.96;79.52;102120.09;5075696;28;20064;-78
2022/03/22 04:35:17;;;;;;;82.72;40.47;;;;;;;0.94;79.44;102126.22;5074695;28;20512;-78
2022/03/22 04:37:45;;;;;;;86.80;40.08;;;;;;;1.04;79.88;102128.25;5074699;28;20119;-77
2022/03/22 04:40:15;;;;;;;91.32;39.95;;;;;;;1.04;79.32;102128.25;5074670;28;20040;-77
2022/03/22 04:42:43;;;;;;;84.95;40.40;;;;;;;1.21;79.12;102130.31;5074094;28;20407;-78
2022/03/22 04:45:11;;;;;;;77.55;38.60;;;;;;;1.24;78.69;102127.72;5074579;28;20048;-78
2022/03/22 04:47:39;;;;;;;83.13;38.58;;;;;;;1.35;78.45;102118.16;5074565;28;20071;-77
2022/03/22 04:50:08;;;;;;;82.22;36.72;;;;;;;1.35;78.74;102123.47;5074537;28;20064;-78
2022/03/22 04:58:08;;;;;;;;;;;;;;;0.90;80.03;102122.63;5075425;28;20064;-78
2022/03/22 05:00:36;;;;;;;81.32;36.95;;;;;;;0.89;80.52;102130.56;5074173;28;19920;-78
2022/03/22 05:03:03;;;;;;;80.75;37.75;;;;;;;0.86;80.59;102124.31;5073463;28;20075;-77
2022/03/22 05:08:17;;;;;;;71.72;35.08;;;;;;;0.96;81.33;102129.81;5074248;28;20062;-78
2022/03/22 05:10:46;;;;;;;71.38;34.50;;;;;;;1.10;81.37;102130.09;5073840;28;20044;-78
2022/03/22 05:13:13;;;;;;;66.05;34.25;;;;;;;1.17;80.77;102120.47;5073647;28;20048;-78
2022/03/22 05:15:41;;;;;;;79.30;36.08;;;;;;;1.38;80.06;102118.19;5073696;28;20047;-76
2022/03/22 05:18:09;;;;;;;77.13;36.22;;;;;;;1.33;80.05;102119.88;5073617;28;20503;-77
2022/03/22 05:20:36;;;;;;;76.72;36.83;;;;;;;1.20;80.36;102117.88;5073692;28;20449;-78
2022/03/22 05:23:04;;;;;;;80.82;37.78;;;;;;;1.10;81.17;102117.69;5073842;28;20050;-78
2022/03/22 05:25:32;;;;;;;76.80;37.38;;;;;;;1.09;81.48;102126.56;5072953;28;20041;-78
2022/03/22 05:28:02;;;;;;;73.78;38.00;;;;;;;1.24;80.79;102117.97;5073752;28;20119;-77
2022/03/22 05:30:30;;;;;;;80.85;38.25;;;;;;;1.37;80.33;102119.06;5073606;28;20044;-77
2022/03/22 05:32:58;;;;;;;83.57;37.70;;;;;;;1.32;81.34;102120.75;5073522;28;20049;-77
2022/03/22 05:35:25;;;;;;;82.35;36.65;;;;;;;1.38;81.53;102125.31;5070653;28;20532;-73
2022/03/22 05:37:53;;;;;;;76.22;36.03;;;;;;;1.38;82.34;102122.66;5070229;28;20127;-77
2022/03/22 05:40:21;;;;;;;77.85;35.55;;;;;;;1.59;81.25;102123.00;5069273;28;20074;-78
2022/03/22 05:42:49;;;;;;;75.18;38.38;;;;;;;1.77;81.30;102115.31;5070021;28;20060;-78
2022/03/22 05:45:18;;;;;;;81.50;37.30;;;;;;;1.90;80.79;102119.97;5070334;28;20055;-77
2022/03/22 05:47:46;;;;;;;66.88;33.58;;;;;;;2.05;81.21;102121.09;5069991;28;20055;-77
2022/03/22 05:50:13;;;;;;;66.78;32.53;;;;;;;2.08;81.86;102129.13;5070074;28;20126;-78
2022/03/22 05:52:44;;;;;;;72.25;36.60;;;;;;;2.14;81.77;102123.88;5069678;28;20127;-77
2022/03/22 05:55:12;;;;;;;70.80;35.50;;;;;;;2.16;81.78;102124.81;5069463;28;20044;-77
2022/03/22 05:57:40;;;;;;;74.68;35.60;;;;;;;2.30;81.90;102125.00;5069959;28;20075;-77
2022/03/22 06:00:10;;;;;;;77.32;35.40;;;;;;;2.24;82.48;102120.47;5069914;28;20064;-77
2022/03/22 06:02:40;;;;;;;70.57;33.95;;;;;;;2.28;82.77;102129.44;5068512;28;20040;-78
2022/03/22 06:05:09;;;;;;;80.18;34.03;;;;;;;2.30;82.91;102133.00;5069304;28;20052;-77
2022/03/22 06:07:37;;;;;;;69.22;34.80;;;;;;;2.34;82.93;102134.84;5069709;28;20052;-78
2022/03/22 06:10:06;;;;;;;69.15;35.25;;;;;;;2.37;82.86;102134.00;5069340;28;20105;-77
2022/03/22 06:12:39;;;;;;;79.70;35.65;;;;;;;2.37;83.25;102139.34;5069383;28;20079;-78
2022/03/22 06:15:18;;;;;;;76.55;38.45;;;;;;;2.47;83.23;102135.91;5072975;28;20497;-77
2022/03/22 06:17:49;;;;;;;87.25;40.13;;;;;;;2.62;83.20;102127.22;5073625;28;20060;-77
2022/03/22 06:20:18;;;;;;;106.00;46.80;;;;;;;2.67;83.64;102127.31;5072778;28;20090;-78
2022/03/22 06:22:46;;;;;;;94.40;45.00;;;;;;;2.89;83.17;102125.81;5072696;28;20448;-77
2022/03/22 06:25:14;;;;;;;93.32;43.92;;;;;;;3.10;82.61;102134.91;5072293;28;20048;-77
2022/03/22 06:27:43;;;;;;;91.32;43.83;;;;;;;3.59;80.57;102123.84;5072940;28;20048;-78
2022/03/22 06:30:12;;;;;;;88.93;39.85;;;;;;;3.78;80.26;102127.59;5073033;28;20123;-78
2022/03/22 06:32:45;;;;;;;81.18;38.67;;;;;;;4.00;79.39;102117.94;5072848;28;20102;-77
2022/03/22 06:35:15;;;;;;;73.18;37.63;;;;;;;4.29;78.09;102122.63;5072867;28;20051;-78
2022/03/22 06:37:44;;;;;;;72.75;38.22;;;;;;;4.44;77.51;102124.44;5072909;28;20395;-78
2022/03/22 06:40:13;;;;;;;66.53;36.67;;;;;;;4.46;77.21;102127.16;5072547;28;20132;-77
2022/03/22 06:42:41;;;;;;;67.30;36.25;;;;;;;4.58;77.58;102121.84;5071558;28;20120;-77
2022/03/22 06:45:10;;;;;;;70.15;37.17;;;;;;;4.76;76.86;102115.69;5069337;28;20135;-77
2022/03/22 06:47:39;;;;;;;74.88;38.83;;;;;;;4.73;77.78;102129.06;5068850;28;20048;-76
2022/03/22 06:50:08;;;;;;;79.35;37.38;;;;;;;4.88;76.99;102130.00;5069078;28;20124;-77
2022/03/22 06:52:37;;;;;;;70.20;36.08;;;;;;;5.09;76.10;102123.84;5068774;28;20072;-77
2022/03/22 06:55:06;;;;;;;81.57;35.92;;;;;;;5.07;76.84;102131.88;5069124;28;20120;-77
2022/03/22 06:57:34;;;;;;;63.83;32.10;;;;;;;5.35;75.41;102125.69;5068085;28;20051;-77
2022/03/22 07:00:05;;;;;;;73.80;33.72;;;;;;;5.32;75.48;102125.69;5074946;28;20036;-77
2022/03/22 07:02:33;;;;;;;72.30;33.72;;;;;;;5.43;75.53;102131.94;5064680;28;20040;-77
2022/03/22 07:05:01;;;;;;;62.22;32.60;;;;;;;5.51;74.93;102131.97;5068558;28;20406;-78
2022/03/22 07:07:28;;;;;;;62.35;30.58;;;;;;;5.65;74.28;102134.69;5068244;28;20123;-78
2022/03/22 07:09:58;;;;;;;56.00;29.38;;;;;;;5.81;73.73;102135.56;5068569;28;20041;-77
2022/03/22 07:12:25;;;;;;;55.38;28.60;;;;;;;6.00;73.02;102131.09;5068106;28;20048;-77
2022/03/22 07:14:53;;;;;;;58.55;28.95;;;;;;;6.16;72.36;102126.66;5065633;28;20056;-77
2022/03/22 07:17:21;;;;;;;55.30;28.30;;;;;;;6.20;71.82;102127.53;5068178;28;20058;-77
2022/03/22 07:19:49;;;;;;;54.20;26.48;;;;;;;6.33;71.65;102141.81;5068229;28;20059;-77
2022/03/22 07:22:16;;;;;;;39.58;21.50;;;;;;;6.27;70.74;102137.34;5070818;28;20384;-76
2022/03/22 07:24:44;;;;;;;38.92;19.20;;;;;;;6.43;70.74;102140.00;5069741;28;20652;-77
2022/03/22 07:27:14;;;;;;;35.20;18.58;;;;;;;6.62;70.04;102136.38;5075926;28;20055;-76
2022/03/22 07:29:41;;;;;;;43.38;21.00;;;;;;;6.62;69.52;102133.69;5080197;28;20064;-78
2022/03/22 07:32:10;;;;;;;40.90;21.75;;;;;;;6.62;68.23;102141.72;5082284;28;20522;-77
2022/03/22 07:34:37;;;;;;;50.83;23.52;;;;;;;6.67;68.93;102139.94;5081012;28;20090;-78
2022/03/22 07:37:05;;;;;;;59.63;24.77;;;;;;;6.82;69.09;102138.09;5078060;28;20044;-77
2022/03/22 07:39:34;;;;;;;56.63;23.98;;;;;;;7.03;68.87;102141.56;5081489;28;20406;-77
2022/03/22 07:42:02;;;;;;;48.03;24.02;;;;;;;7.16;68.89;102142.41;5069839;28;20498;-78
2022/03/22 07:44:32;;;;;;;46.00;23.17;;;;;;;7.33;68.38;102124.38;5071639;28;20128;-77
2022/03/22 07:47:00;;;;;;;53.95;24.27;;;;;;;7.50;68.31;102132.34;5075696;28;20044;-76
2022/03/22 07:54:59;;;;;;;55.72;25.20;;;;;;;7.83;68.50;102124.03;5072280;28;20075;-78
2022/03/22 07:57:26;;;;;;;60.85;33.28;;;;;;;7.87;68.54;102133.88;5071953;28;20044;-77
2022/03/22 07:59:55;;;;;;;60.95;29.52;;;;;;;7.97;69.01;102113.16;5071432;28;20348;-77
2022/03/22 08:02:23;;;;;;;55.35;27.02;;;;;;;8.08;68.98;102121.09;5071694;28;20123;-78
2022/03/22 08:04:51;;;;;;;51.70;26.00;;;;;;;8.14;67.32;102120.16;5071581;28;20044;-78
2022/03/22 08:07:18;;;;;;;44.67;24.13;;;;;;;8.20;66.90;102120.09;5071491;28;20052;-78
2022/03/22 08:09:46;;;;;;;45.58;25.23;;;;;;;8.28;67.28;102118.22;5071855;28;20048;-78
2022/03/22 08:12:14;;;;;;;47.53;27.38;;;;;;;8.39;66.96;102115.41;5071393;28;20045;-78
2022/03/22 08:14:42;;;;;;;62.03;31.05;;;;;;;8.60;67.29;102117.00;5071713;28;20452;-78
2022/03/22 08:17:11;;;;;;;60.40;30.30;;;;;;;8.65;67.20;102112.44;5071179;28;20169;-79
2022/03/22 08:19:39;;;;;;;57.00;31.42;;;;;;;8.74;68.27;102118.63;5070892;28;20080;-78
2022/03/22 08:22:06;;;;;;;55.50;28.25;;;;;;;8.80;67.58;102113.19;5071569;28;20127;-77
2022/03/22 08:24:34;;;;;;;53.28;29.08;;;;;;;8.86;67.80;102114.88;5070988;28;20044;-78
2022/03/22 08:27:02;;;;;;;58.35;31.48;;;;;;;8.98;68.23;102114.75;5071486;28;20072;-77
2022/03/22 08:29:29;;;;;;;57.72;28.90;;;;;;;9.06;67.08;102107.44;5071423;28;20131;-77
2022/03/22 08:31:57;;;;;;;49.80;26.15;;;;;;;9.17;67.23;102109.97;5071402;28;20059;-77
2022/03/22 08:34:26;;;;;;;49.50;25.90;;;;;;;9.29;67.04;102117.00;5070999;28;20048;-78
2022/03/22 08:36:54;;;;;;;41.47;21.77;;;;;;;9.45;65.83;102108.69;5070792;28;20058;-78
2022/03/22 08:39:22;;;;;;;36.58;20.63;;;;;;;9.50;64.84;102107.69;5071090;28;20052;-77
2022/03/22 08:41:52;;;;;;;42.47;20.30;;;;;;;9.60;63.82;102096.75;5071164;28;20495;-78
2022/03/22 08:44:20;;;;;;;46.15;23.65;;;;;;;9.69;62.76;102097.47;5071103;28;20047;-77
2022/03/22 08:46:51;;;;;;;53.20;29.42;;;;;;;9.68;63.35;102093.00;5071002;28;20053;-78
2022/03/22 08:49:18;;;;;;;42.15;21.80;;;;;;;9.83;63.94;102099.06;5070386;28;20475;-77
2022/03/22 08:51:50;;;;;;;37.92;20.70;;;;;;;9.97;63.37;102091.63;5070873;28;20401;-78
2022/03/22 08:54:19;;;;;;;41.47;25.00;;;;;;;10.05;63.07;102095.97;5071107;28;20487;-77
2022/03/22 08:56:47;;;;;;;33.83;19.55;;;;;;;10.02;61.57;102091.53;5070645;28;20048;-77
2022/03/22 08:59:14;;;;;;;36.80;19.30;;;;;;;10.23;61.44;102092.94;5070786;28;20048;-78
2022/03/22 09:01:42;;;;;;;28.85;15.30;;;;;;;10.33;61.04;102088.22;5070276;28;20396;-77
2022/03/22 09:06:57;;;;;;;31.98;15.60;;;;;;;10.58;59.37;102095.91;5068906;28;20045;-76
2022/03/22 09:09:25;;;;;;;36.42;15.73;;;;;;;10.63;58.98;102104.78;5069974;28;20527;-77
2022/03/22 09:11:53;;;;;;;27.65;13.15;;;;;;;10.71;58.78;102093.84;5069871;28;20044;-76
2022/03/22 09:14:20;;;;;;;21.27;11.68;;;;;;;10.66;56.72;102083.09;5070068;28;20128;-77
2022/03/22 09:16:48;;;;;;;19.70;10.07;;;;;;;10.66;54.15;102088.50;5069514;28;20052;-77
2022/03/22 09:19:16;;;;;;;15.07;5.55;;;;;;;10.78;54.88;102086.47;5069723;28;20097;-76
2022/03/22 09:21:44;;;;;;;11.57;5.20;;;;;;;10.92;53.33;102078.97;5069602;28;20040;-76
2022/03/22 09:24:13;;;;;;;12.43;4.20;;;;;;;10.93;53.13;102079.84;5069241;28;20499;-77
2022/03/22 09:26:40;;;;;;;14.00;5.63;;;;;;;10.94;51.53;102069.00;5070182;28;20055;-76
2022/03/22 09:29:08;;;;;;;12.80;5.03;;;;;;;11.06;52.92;102075.94;5068151;28;20050;-76
2022/03/22 09:31:36;;;;;;;17.25;4.68;;;;;;;11.19;53.75;102073.81;5049544;28;20041;-77
2022/03/22 09:34:03;;;;;;;18.73;8.52;;;;;;;11.21;52.77;102066.56;5049875;28;20135;-77
2022/03/22 09:36:32;;;;;;;16.48;6.95;;;;;;;11.36;52.58;102064.44;5049642;28;20056;-77
2022/03/22 09:38:59;;;;;;;13.63;6.50;;;;;;;11.44;53.03;102057.00;5060037;28;20045;-76
2022/03/22 09:41:31;;;;;;;14.75;6.05;;;;;;;11.55;53.46;102054.91;5070001;28;20115;-76
2022/03/22 09:43:59;;;;;;;14.50;5.65;;;;;;;11.62;52.90;102060.19;5071482;28;20098;-77
2022/03/22 09:46:27;;;;;;;13.23;5.32;;;;;;;11.76;53.08;102057.13;5069043;28;20048;-76
2022/03/22 09:48:54;;;;;;;14.60;6.60;;;;;;;11.88;53.10;102052.28;5068611;28;20047;-76
2022/03/22 09:54:07;;;;;;;12.50;5.38;;;;;;;12.03;51.53;102045.59;5067810;28;20094;-77
2022/03/22 09:56:37;;;;;;;12.18;5.78;;;;;;;12.10;51.83;102049.03;5069098;28;20396;-77
2022/03/22 09:59:05;;;;;;;13.90;6.47;;;;;;;12.19;51.14;102049.69;5070211;28;20040;-77
2022/03/22 10:01:33;;;;;;;14.55;6.28;;;;;;;12.28;50.59;102052.13;5072265;28;20040;-79
2022/03/22 10:04:02;;;;;;;18.35;9.48;;;;;;;12.24;50.35;102048.66;5072738;28;20044;-76
2022/03/22 10:06:30;;;;;;;16.60;6.32;;;;;;;12.32;50.80;102043.00;5072202;28;20042;-77
2022/03/22 10:08:58;;;;;;;16.70;6.85;;;;;;;12.42;49.85;102049.03;5073060;28;20040;-77
2022/03/22 10:11:37;;;;;;;14.23;7.03;;;;;;;12.48;49.70;102053.41;5070584;28;20048;-76
2022/03/22 10:14:05;;;;;;;15.90;7.25;;;;;;;12.52;49.60;102052.38;5071152;28;20040;-76
2022/03/22 10:16:33;;;;;;;14.55;6.80;;;;;;;12.59;49.24;102043.13;5072374;28;20504;-76
2022/03/22 10:19:00;;;;;;;15.68;7.47;;;;;;;12.70;49.92;102040.97;5072738;28;20094;-76
2022/03/22 10:21:29;;;;;;;14.55;6.70;;;;;;;12.74;48.96;102037.22;5072867;28;20040;-76
2022/03/22 10:23:57;;;;;;;14.00;6.68;;;;;;;12.85;47.65;102036.00;5073143;28;20052;-76
2022/03/22 10:26:33;;;;;;;17.95;7.70;;;;;;;12.86;47.86;102035.97;5072927;28;20045;-76
2022/03/22 10:29:02;;;;;;;32.58;15.57;;;;;;;12.90;48.61;102039.47;5072823;28;20043;-76
2022/03/22 10:31:34;;;;;;;16.08;8.15;;;;;;;12.97;48.37;102032.03;5072573;28;20044;-76
2022/03/22 10:34:02;;;;;;;14.25;7.10;;;;;;;12.95;45.40;102032.09;5072614;28;20044;-76
2022/03/22 10:36:30;;;;;;;21.02;10.63;;;;;;;12.83;46.00;102024.31;5072737;28;20044;-76
2022/03/22 10:38:59;;;;;;;15.25;7.13;;;;;;;12.88;46.36;102025.09;5072186;28;20102;-77
2022/03/22 10:41:28;;;;;;;15.25;7.22;;;;;;;12.97;45.57;102022.06;5070144;28;20085;-76
2022/03/22 10:44:05;;;;;;;22.55;11.73;;;;;;;13.07;44.96;102010.91;5072570;28;20440;-76
2022/03/22 10:46:33;;;;;;;15.52;7.18;;;;;;;13.24;45.85;102011.25;5071631;28;20052;-76
2022/03/22 10:49:06;;;;;;;16.17;7.03;;;;;;;13.16;42.67;102010.63;5072192;28;20051;-76
2022/03/22 10:51:35;;;;;;;22.08;11.48;;;;;;;13.12;44.28;102007.13;5072339;28;20040;-76
2022/03/22 10:54:04;;;;;;;21.77;11.65;;;;;;;13.15;45.09;102011.56;5072753;28;20045;-76
2022/03/22 10:56:32;;;;;;;20.27;9.93;;;;;;;13.38;44.99;102004.50;5071157;28;20052;-76
2022/03/22 10:59:00;;;;;;;16.75;8.73;;;;;;;13.46;45.96;102007.84;5072152;28;20158;-77
2022/03/22 11:01:30;;;;;;;16.17;7.63;;;;;;;13.51;45.31;102007.72;5075952;28;20059;-77
2022/03/22 11:03:58;;;;;;;14.77;8.35;;;;;;;13.36;45.06;102001.81;5076202;28;20127;-78
2022/03/22 11:06:34;;;;;;;16.55;7.75;;;;;;;13.55;45.13;102003.94;5073850;28;20033;-76
2022/03/22 11:09:03;;;;;;;17.85;8.50;;;;;;;13.67;45.05;102000.78;5078705;28;20068;-77
2022/03/22 11:11:32;;;;;;;26.63;15.15;;;;;;;13.62;44.53;101989.22;5076235;28;20047;-77
2022/03/22 11:14:00;;;;;;;15.55;8.57;;;;;;;13.53;44.15;101984.13;5075740;28;20068;-77
2022/03/22 11:16:31;;;;;;;16.52;8.80;;;;;;;13.47;44.18;101975.25;5075694;28;20178;-76
2022/03/22 11:19:00;;;;;;;15.48;8.75;;;;;;;13.55;45.44;101980.38;5075741;28;20079;-77
2022/03/22 11:21:29;;;;;;;16.13;8.15;;;;;;;13.61;45.21;101972.03;5075825;28;20040;-77
2022/03/22 11:24:09;;;;;;;15.27;7.57;;;;;;;13.78;45.30;101970.56;5075770;28;20067;-78
2022/03/22 11:26:42;;;;;;;26.73;14.45;;;;;;;13.84;44.65;101973.03;5075484;28;20102;-76
2022/03/22 11:29:12;;;;;;;17.10;8.30;;;;;;;13.91;43.48;101969.16;5076569;28;20048;-77
2022/03/22 11:34:08;;;;;;;15.13;6.57;;;;;;;14.01;43.77;101969.72;5074984;28;20049;-77
2022/03/22 11:34:29;;;;;;;17.25;8.20;;;;;;;13.87;43.08;101970.22;5076648;28;20058;-76
2022/03/22 11:37:00;;;;;;;14.77;7.70;;;;;;;14.02;43.65;101963.31;5072328;28;20716;-76
2022/03/22 11:42:18;;;;;;;208.55;14.52;;;;;;;14.15;46.35;101952.91;5074281;28;20044;-78
2022/03/22 11:44:56;;;;;;;20.75;8.40;;;;;;;-147.76;100.00;60361.69;5059404;28;20050;-77
2022/03/22 11:47:27;;;;;;;37.15;8.40;;;;;;;-147.76;100.00;60361.69;5077243;28;20115;-77
2022/03/22 11:49:56;;;;;;;32.05;8.40;;;;;;;-147.76;100.00;60361.69;5079163;28;20044;-79
2022/03/22 11:52:25;;;;;;;34.83;9.13;;;;;;;14.15;46.35;101952.91;5075598;28;20044;-77
2022/03/22 11:54:58;;;;;;;26.42;8.10;;;;;;;14.29;46.69;101951.47;5077969;28;20045;-77
2022/03/22 11:57:26;;;;;;;15.00;7.80;;;;;;;14.38;45.94;101950.22;5078575;28;20048;-79